createdAt,value
2022-10-15T00:00:13.639Z,985.62
2022-10-15T00:01:13.696Z,985.61
2022-10-15T00:02:13.651Z,985.63
2022-10-15T00:03:13.634Z,985.61
2022-10-15T00:04:13.633Z,985.60
2022-10-15T00:05:13.648Z,985.54
2022-10-15T00:06:13.636Z,985.59
2022-10-15T00:07:13.585Z,985.60
2022-10-15T00:08:13.581Z,985.60
2022-10-15T00:09:13.631Z,985.60
2022-10-15T00:10:13.588Z,985.58
2022-10-15T00:11:13.575Z,985.50
2022-10-15T00:12:13.572Z,985.53
2022-10-15T00:13:13.541Z,985.53
2022-10-15T00:14:13.576Z,985.50
2022-10-15T00:15:13.527Z,985.54
2022-10-15T00:16:13.521Z,985.53
2022-10-15T00:17:13.525Z,985.55
2022-10-15T00:18:13.550Z,985.50
2022-10-15T00:19:13.505Z,985.57
2022-10-15T00:20:13.512Z,985.51
2022-10-15T00:21:13.480Z,985.55
2022-10-15T00:22:13.475Z,985.60
2022-10-15T00:23:13.478Z,985.58
2022-10-15T00:24:13.508Z,985.59
2022-10-15T00:25:13.449Z,985.60
2022-10-15T00:26:13.441Z,985.60
2022-10-15T00:27:13.455Z,985.60
2022-10-15T00:28:13.435Z,985.56
2022-10-15T00:29:13.411Z,985.52
2022-10-15T00:30:13.421Z,985.51
2022-10-15T00:31:13.410Z,985.54
2022-10-15T00:32:13.415Z,985.50
2022-10-15T00:33:13.390Z,985.48
2022-10-15T00:34:13.398Z,985.42
2022-10-15T00:35:13.356Z,985.44
2022-10-15T00:36:14.373Z,985.47
2022-10-15T00:37:13.384Z,985.44
2022-10-15T00:38:13.369Z,985.47
2022-10-15T00:39:13.374Z,985.44
2022-10-15T00:40:13.327Z,985.43
2022-10-15T00:41:13.355Z,985.46
2022-10-15T00:42:13.309Z,985.40
2022-10-15T00:43:13.325Z,985.40
2022-10-15T00:44:13.304Z,985.44
2022-10-15T00:45:13.277Z,985.43
2022-10-15T00:46:13.323Z,985.47
2022-10-15T00:47:13.272Z,985.47
2022-10-15T00:48:13.263Z,985.50
2022-10-15T00:49:13.283Z,985.52
2022-10-15T00:50:13.289Z,985.49
2022-10-15T00:51:13.266Z,985.41
2022-10-15T00:52:13.234Z,985.45
2022-10-15T00:53:13.229Z,985.45
2022-10-15T00:54:13.217Z,985.43
2022-10-15T00:55:13.253Z,985.40
2022-10-15T00:56:13.213Z,985.43
2022-10-15T00:57:13.226Z,985.37
2022-10-15T00:59:14.178Z,985.29
2022-10-15T01:00:13.185Z,985.31
2022-10-15T01:01:13.306Z,985.31
2022-10-15T01:02:13.158Z,985.24
2022-10-15T01:03:13.144Z,985.23
2022-10-15T01:04:13.159Z,985.22
2022-10-15T01:05:13.141Z,985.25
2022-10-15T01:06:13.153Z,985.18
2022-10-15T01:07:13.178Z,985.22
2022-10-15T01:08:13.123Z,985.23
2022-10-15T01:09:13.096Z,985.26
2022-10-15T01:10:13.103Z,985.23
2022-10-15T01:11:13.119Z,985.32
2022-10-15T01:12:13.089Z,985.28
2022-10-15T01:13:13.080Z,985.23
2022-10-15T01:14:13.057Z,985.22
2022-10-15T01:15:13.072Z,985.23
2022-10-15T01:17:13.054Z,985.17
2022-10-15T01:18:13.046Z,985.22
2022-10-15T01:19:13.030Z,985.18
2022-10-15T01:20:13.028Z,985.16
2022-10-15T01:21:13.018Z,985.18
2022-10-15T01:22:13.033Z,985.24
2022-10-15T01:23:13.025Z,985.23
2022-10-15T01:24:13.000Z,985.21
2022-10-15T01:25:13.070Z,985.21
2022-10-15T01:26:12.954Z,985.18
2022-10-15T01:27:12.987Z,985.16
2022-10-15T01:28:12.993Z,985.16
2022-10-15T01:29:12.959Z,985.22
2022-10-15T01:30:12.944Z,985.17
2022-10-15T01:31:12.938Z,985.18
2022-10-15T01:32:12.950Z,985.14
2022-10-15T01:33:12.950Z,985.13
2022-10-15T01:34:17.271Z,985.15
2022-10-15T01:35:13.918Z,985.17
2022-10-15T01:36:12.939Z,985.12
2022-10-15T01:37:12.891Z,985.03
2022-10-15T01:38:12.887Z,985.10
2022-10-15T01:39:12.871Z,984.96
2022-10-15T01:40:12.896Z,985.00
2022-10-15T01:41:12.858Z,984.90
2022-10-15T01:42:12.855Z,984.95
2022-10-15T01:43:12.905Z,984.89
2022-10-15T01:44:12.954Z,984.94
2022-10-15T01:45:12.842Z,984.88
2022-10-15T01:46:12.821Z,984.87
2022-10-15T01:47:12.806Z,984.93
2022-10-15T01:48:12.806Z,984.89
2022-10-15T01:49:12.867Z,984.90
2022-10-15T01:50:12.820Z,984.94
2022-10-15T01:51:12.777Z,984.87
2022-10-15T01:52:12.808Z,984.94
2022-10-15T01:53:12.795Z,984.96
2022-10-15T01:54:12.750Z,984.91
2022-10-15T01:55:12.759Z,984.92
2022-10-15T01:56:12.732Z,984.88
2022-10-15T01:57:12.734Z,984.89
2022-10-15T01:58:12.730Z,984.89
2022-10-15T01:59:12.736Z,984.87
2022-10-15T02:00:12.740Z,984.95
2022-10-15T02:01:12.745Z,984.97
2022-10-15T02:02:12.695Z,984.97
2022-10-15T02:03:12.705Z,984.98
2022-10-15T02:04:12.666Z,984.99
2022-10-15T02:05:12.691Z,984.94
2022-10-15T02:06:12.652Z,984.94
2022-10-15T02:07:12.693Z,984.93
2022-10-15T02:08:12.645Z,984.92
2022-10-15T02:09:12.647Z,984.87
2022-10-15T02:10:12.668Z,984.85
2022-10-15T02:11:12.605Z,984.83
2022-10-15T02:12:12.632Z,984.83
2022-10-15T02:13:12.602Z,984.84
2022-10-15T02:14:12.613Z,984.83
2022-10-15T02:15:12.598Z,984.85
2022-10-15T02:16:12.575Z,984.86
2022-10-15T02:17:12.572Z,984.83
2022-10-15T02:18:12.607Z,984.85
2022-10-15T02:19:12.552Z,984.86
2022-10-15T02:20:12.566Z,984.80
2022-10-15T02:21:12.544Z,984.81
2022-10-15T02:22:12.559Z,984.76
2022-10-15T02:23:12.560Z,984.77
2022-10-15T02:24:12.547Z,984.80
2022-10-15T02:25:12.523Z,984.79
2022-10-15T02:26:12.505Z,984.83
2022-10-15T02:27:12.522Z,984.80
2022-10-15T02:28:12.486Z,984.82
2022-10-15T02:29:12.587Z,984.82
2022-10-15T02:30:13.480Z,984.74
2022-10-15T02:31:12.470Z,984.79
2022-10-15T02:32:12.460Z,984.81
2022-10-15T02:33:12.454Z,984.75
2022-10-15T02:34:12.462Z,984.76
2022-10-15T02:35:12.441Z,984.81
2022-10-15T02:36:12.418Z,984.77
2022-10-15T02:37:12.421Z,984.85
2022-10-15T02:39:12.391Z,984.78
2022-10-15T02:40:12.413Z,984.81
2022-10-15T02:41:12.400Z,984.81
2022-10-15T02:42:12.389Z,984.76
2022-10-15T02:43:13.367Z,984.78
2022-10-15T02:44:12.365Z,984.74
2022-10-15T02:45:12.351Z,984.73
2022-10-15T02:46:12.374Z,984.74
2022-10-15T02:47:12.388Z,984.74
2022-10-15T02:48:12.331Z,984.63
2022-10-15T02:49:12.332Z,984.69
2022-10-15T02:50:12.345Z,984.65
2022-10-15T02:51:12.320Z,984.61
2022-10-15T02:52:12.305Z,984.58
2022-10-15T02:53:12.291Z,984.58
2022-10-15T02:54:12.287Z,984.61
2022-10-15T02:55:12.264Z,984.56
2022-10-15T02:56:13.287Z,984.55
2022-10-15T02:57:12.276Z,984.52
2022-10-15T02:58:12.271Z,984.54
2022-10-15T02:59:12.238Z,984.52
2022-10-15T03:00:12.235Z,984.55
2022-10-15T03:01:12.313Z,984.58
2022-10-15T03:02:15.350Z,984.61
2022-10-15T03:03:14.213Z,984.62
2022-10-15T03:04:12.205Z,984.65
2022-10-15T03:05:12.193Z,984.65
2022-10-15T03:06:12.238Z,984.67
2022-10-15T03:07:12.201Z,984.66
2022-10-15T03:08:12.183Z,984.65
2022-10-15T03:09:12.184Z,984.66
2022-10-15T03:10:12.156Z,984.65
2022-10-15T03:11:12.149Z,984.64
2022-10-15T03:12:12.176Z,984.63
2022-10-15T03:13:12.133Z,984.61
2022-10-15T03:14:12.129Z,984.62
2022-10-15T03:15:12.129Z,984.54
2022-10-15T03:16:12.143Z,984.56
2022-10-15T03:17:12.134Z,984.55
2022-10-15T03:18:12.091Z,984.57
2022-10-15T03:19:12.112Z,984.58
2022-10-15T03:20:12.094Z,984.55
2022-10-15T03:21:12.071Z,984.58
2022-10-15T03:22:12.070Z,984.56
2022-10-15T03:23:12.091Z,984.58
2022-10-15T03:24:12.079Z,984.56
2022-10-15T03:25:12.047Z,984.43
2022-10-15T03:26:12.031Z,984.55
2022-10-15T03:27:12.063Z,984.52
2022-10-15T03:28:12.015Z,984.57
2022-10-15T03:29:12.040Z,984.52
2022-10-15T03:30:11.992Z,984.50
2022-10-15T03:31:11.989Z,984.51
2022-10-15T03:32:11.975Z,984.56
2022-10-15T03:33:11.974Z,984.59
2022-10-15T03:34:11.966Z,984.53
2022-10-15T03:35:11.992Z,984.60
2022-10-15T03:36:11.983Z,984.63
2022-10-15T03:37:11.973Z,984.66
2022-10-15T03:38:11.949Z,984.66
2022-10-15T03:39:11.935Z,984.66
2022-10-15T03:40:13.744Z,984.66
2022-10-15T03:41:12.930Z,984.67
2022-10-15T03:42:11.918Z,984.66
2022-10-15T03:43:11.914Z,984.65
2022-10-15T03:44:11.891Z,984.71
2022-10-15T03:45:11.881Z,984.77
2022-10-15T03:46:11.874Z,984.69
2022-10-15T03:47:11.856Z,984.77
2022-10-15T03:48:11.879Z,984.76
2022-10-15T03:49:11.851Z,984.74
2022-10-15T03:50:11.825Z,984.74
2022-10-15T03:51:15.590Z,984.73
2022-10-15T03:52:12.850Z,984.75
2022-10-15T03:53:11.813Z,984.79
2022-10-15T03:54:11.834Z,984.77
2022-10-15T03:55:11.800Z,984.77
2022-10-15T03:56:11.800Z,984.77
2022-10-15T03:57:11.794Z,984.77
2022-10-15T03:58:11.797Z,984.78
2022-10-15T03:59:11.791Z,984.76
2022-10-15T04:00:11.901Z,984.80
2022-10-15T04:01:11.829Z,984.81
2022-10-15T04:02:11.743Z,984.84
2022-10-15T04:03:11.768Z,984.91
2022-10-15T04:04:11.767Z,984.90
2022-10-15T04:05:11.753Z,984.89
2022-10-15T04:06:11.715Z,984.91
2022-10-15T04:07:11.719Z,984.92
2022-10-15T04:08:11.705Z,984.98
2022-10-15T04:09:11.722Z,984.87
2022-10-15T04:10:11.686Z,984.91
2022-10-15T04:11:11.682Z,984.91
2022-10-15T04:12:11.688Z,984.91
2022-10-15T04:13:11.659Z,984.87
2022-10-15T04:14:11.689Z,984.78
2022-10-15T04:15:11.672Z,984.85
2022-10-15T04:16:11.644Z,984.83
2022-10-15T04:17:11.626Z,984.84
2022-10-15T04:18:11.627Z,984.91
2022-10-15T04:19:11.624Z,984.90
2022-10-15T04:20:11.649Z,984.94
2022-10-15T04:21:11.604Z,984.92
2022-10-15T04:22:11.593Z,984.85
2022-10-15T04:23:11.583Z,984.94
2022-10-15T04:24:11.592Z,984.97
2022-10-15T04:25:11.571Z,984.86
2022-10-15T04:26:11.584Z,985.01
2022-10-15T04:27:11.598Z,984.98
2022-10-15T04:28:11.548Z,985.00
2022-10-15T04:29:11.572Z,985.01
2022-10-15T04:30:11.540Z,985.02
2022-10-15T04:31:11.629Z,984.97
2022-10-15T04:32:11.571Z,985.02
2022-10-15T04:33:11.519Z,984.96
2022-10-15T04:34:11.548Z,984.95
2022-10-15T04:35:11.496Z,984.82
2022-10-15T04:36:11.567Z,984.87
2022-10-15T04:37:11.487Z,984.75
2022-10-15T04:38:11.556Z,984.71
2022-10-15T04:39:13.840Z,984.80
2022-10-15T04:40:11.462Z,984.73
2022-10-15T04:41:11.467Z,984.81
2022-10-15T04:42:12.443Z,984.82
2022-10-15T04:43:11.495Z,984.80
2022-10-15T04:44:11.419Z,984.79
2022-10-15T04:45:11.459Z,984.83
2022-10-15T04:46:11.511Z,984.69
2022-10-15T04:47:11.420Z,984.70
2022-10-15T04:48:11.463Z,984.63
2022-10-15T04:49:11.389Z,984.65
2022-10-15T04:50:11.392Z,984.66
2022-10-15T04:51:11.372Z,984.71
2022-10-15T04:52:11.384Z,984.73
2022-10-15T04:53:11.383Z,984.70
2022-10-15T04:54:11.351Z,984.68
2022-10-15T04:55:11.344Z,984.65
2022-10-15T04:56:11.341Z,984.64
2022-10-15T04:57:11.336Z,984.60
2022-10-15T04:58:11.337Z,984.61
2022-10-15T04:59:11.333Z,984.59
2022-10-15T05:00:11.331Z,984.60
2022-10-15T05:01:11.317Z,984.65
2022-10-15T05:02:11.317Z,984.68
2022-10-15T05:03:11.353Z,984.74
2022-10-15T05:04:11.278Z,984.75
2022-10-15T05:05:11.269Z,984.73
2022-10-15T05:06:11.266Z,984.73
2022-10-15T05:07:11.251Z,984.74
2022-10-15T05:08:11.298Z,984.76
2022-10-15T05:09:11.236Z,984.75
2022-10-15T05:10:11.222Z,984.76
2022-10-15T05:11:11.245Z,984.82
2022-10-15T05:12:11.277Z,984.88
2022-10-15T05:13:11.245Z,984.98
2022-10-15T05:14:11.206Z,984.98
2022-10-15T05:15:11.208Z,984.94
2022-10-15T05:16:11.217Z,984.98
2022-10-15T05:17:11.179Z,985.00
2022-10-15T05:18:11.169Z,984.91
2022-10-15T05:19:11.165Z,984.94
2022-10-15T05:20:11.157Z,984.98
2022-10-15T05:21:11.178Z,985.04
2022-10-15T05:22:11.158Z,985.02
2022-10-15T05:23:11.130Z,985.03
2022-10-15T05:24:11.147Z,985.05
2022-10-15T05:25:11.157Z,985.05
2022-10-15T05:26:11.102Z,985.10
2022-10-15T05:27:11.101Z,985.05
2022-10-15T05:28:11.093Z,985.02
2022-10-15T05:29:11.108Z,985.08
2022-10-15T05:30:11.084Z,985.09
2022-10-15T05:31:16.072Z,985.09
2022-10-15T05:32:12.078Z,985.12
2022-10-15T05:33:11.073Z,985.12
2022-10-15T05:34:11.065Z,985.10
2022-10-15T05:35:11.086Z,985.14
2022-10-15T05:36:11.034Z,985.14
2022-10-15T05:37:11.021Z,985.18
2022-10-15T05:38:11.012Z,985.21
2022-10-15T05:39:11.011Z,985.20
2022-10-15T05:40:11.126Z,985.26
2022-10-15T05:41:10.983Z,985.19
2022-10-15T05:42:10.987Z,985.09
2022-10-15T05:43:10.972Z,985.14
2022-10-15T05:44:10.996Z,985.10
2022-10-15T05:45:10.956Z,985.10
2022-10-15T05:46:10.958Z,985.17
2022-10-15T05:47:10.934Z,985.21
2022-10-15T05:48:10.955Z,985.29
2022-10-15T05:49:10.967Z,985.23
2022-10-15T05:50:11.838Z,985.24
2022-10-15T05:51:11.907Z,985.18
2022-10-15T05:52:10.920Z,985.18
2022-10-15T05:53:11.900Z,985.09
2022-10-15T05:54:10.894Z,985.03
2022-10-15T05:55:10.880Z,984.97
2022-10-15T05:56:10.862Z,984.99
2022-10-15T05:57:10.889Z,984.95
2022-10-15T05:58:10.941Z,984.95
2022-10-15T05:59:10.858Z,985.01
2022-10-15T06:00:10.914Z,984.98
2022-10-15T06:01:10.876Z,985.06
2022-10-15T06:02:10.924Z,985.01
2022-10-15T06:03:10.828Z,984.99
2022-10-15T06:04:10.820Z,984.97
2022-10-15T06:05:10.843Z,984.99
2022-10-15T06:06:10.813Z,985.01
2022-10-15T06:07:10.801Z,985.04
2022-10-15T06:08:10.818Z,984.97
2022-10-15T06:09:10.774Z,984.99
2022-10-15T06:10:10.878Z,984.99
2022-10-15T06:11:10.780Z,984.95
2022-10-15T06:12:10.787Z,984.99
2022-10-15T06:13:10.746Z,985.01
2022-10-15T06:14:10.751Z,985.03
2022-10-15T06:15:10.755Z,985.06
2022-10-15T06:16:10.733Z,985.10
2022-10-15T06:17:10.745Z,985.08
2022-10-15T06:18:10.711Z,985.17
2022-10-15T06:19:10.734Z,985.19
2022-10-15T06:20:10.691Z,985.19
2022-10-15T06:21:10.695Z,985.18
2022-10-15T06:22:10.736Z,985.23
2022-10-15T06:23:10.672Z,985.25
2022-10-15T06:24:10.680Z,985.26
2022-10-15T06:25:10.656Z,985.37
2022-10-15T06:26:10.668Z,985.43
2022-10-15T06:27:10.641Z,985.47
2022-10-15T06:28:10.633Z,985.56
2022-10-15T06:29:10.746Z,985.61
2022-10-15T06:30:10.603Z,985.67
2022-10-15T06:31:10.627Z,985.67
2022-10-15T06:32:10.614Z,985.65
2022-10-15T06:34:10.592Z,985.69
2022-10-15T06:35:10.606Z,985.67
2022-10-15T06:36:10.595Z,985.68
2022-10-15T06:37:10.577Z,985.70
2022-10-15T06:38:10.597Z,985.70
2022-10-15T06:39:10.547Z,985.69
2022-10-15T06:40:10.591Z,985.74
2022-10-15T06:41:10.529Z,985.71
2022-10-15T06:42:10.701Z,985.77
2022-10-15T06:43:10.514Z,985.81
2022-10-15T06:44:10.512Z,985.80
2022-10-15T06:45:10.509Z,985.80
2022-10-15T06:46:10.555Z,985.79
2022-10-15T06:47:10.518Z,985.88
2022-10-15T06:48:10.523Z,985.86
2022-10-15T06:49:10.467Z,985.85
2022-10-15T06:50:10.483Z,985.93
2022-10-15T06:51:10.463Z,985.86
2022-10-15T06:52:10.445Z,985.86
2022-10-15T06:53:10.437Z,985.90
2022-10-15T06:54:10.461Z,985.93
2022-10-15T06:55:10.433Z,985.87
2022-10-15T06:56:10.410Z,985.87
2022-10-15T06:57:10.416Z,985.99
2022-10-15T06:58:10.416Z,985.97
2022-10-15T06:59:10.419Z,985.96
2022-10-15T07:00:10.387Z,986.04
2022-10-15T07:01:10.376Z,986.10
2022-10-15T07:02:10.370Z,986.18
2022-10-15T07:03:10.364Z,986.10
2022-10-15T07:04:10.386Z,986.05
2022-10-15T07:05:10.344Z,986.04
2022-10-15T07:06:10.352Z,986.00
2022-10-15T07:07:10.320Z,985.95
2022-10-15T07:08:11.588Z,985.91
2022-10-15T07:09:10.345Z,985.89
2022-10-15T07:10:10.339Z,985.84
2022-10-15T07:11:10.299Z,985.84
2022-10-15T07:12:10.292Z,985.83
2022-10-15T07:13:10.292Z,985.90
2022-10-15T07:14:10.272Z,985.90
2022-10-15T07:15:10.314Z,985.95
2022-10-15T07:16:10.294Z,985.99
2022-10-15T07:17:10.295Z,985.98
2022-10-15T07:18:10.253Z,985.97
2022-10-15T07:19:10.271Z,986.02
2022-10-15T07:20:10.247Z,986.02
2022-10-15T07:22:10.214Z,985.87
2022-10-15T07:23:10.211Z,985.93
2022-10-15T07:24:10.292Z,985.89
2022-10-15T07:25:10.207Z,985.94
2022-10-15T07:26:10.220Z,985.95
2022-10-15T07:27:18.821Z,986.00
2022-10-15T07:28:12.181Z,986.06
2022-10-15T07:29:10.165Z,986.04
2022-10-15T07:30:10.193Z,986.08
2022-10-15T07:31:10.185Z,986.06
2022-10-15T07:32:10.154Z,986.18
2022-10-15T07:33:10.177Z,986.11
2022-10-15T07:34:10.163Z,986.06
2022-10-15T07:35:10.120Z,986.06
2022-10-15T07:36:10.111Z,986.05
2022-10-15T07:37:10.128Z,986.07
2022-10-15T07:38:10.142Z,986.04
2022-10-15T07:39:10.124Z,986.02
2022-10-15T07:40:10.120Z,986.06
2022-10-15T07:41:10.137Z,986.05
2022-10-15T07:42:10.405Z,986.00
2022-10-15T07:43:10.178Z,986.03
2022-10-15T07:44:10.119Z,986.00
2022-10-15T07:45:12.511Z,986.04
2022-10-15T07:46:10.068Z,986.09
2022-10-15T07:47:10.057Z,986.09
2022-10-15T07:48:10.056Z,986.16
2022-10-15T07:49:10.151Z,986.16
2022-10-15T07:50:10.110Z,986.11
2022-10-15T07:51:10.052Z,986.10
2022-10-15T07:52:09.999Z,986.17
2022-10-15T07:53:09.995Z,986.14
2022-10-15T07:54:09.990Z,986.10
2022-10-15T07:55:10.019Z,986.15
2022-10-15T07:56:09.954Z,986.18
2022-10-15T07:57:10.087Z,986.16
2022-10-15T07:58:09.940Z,986.24
2022-10-15T07:59:09.957Z,986.25
2022-10-15T08:00:09.950Z,986.28
2022-10-15T08:01:09.942Z,986.34
2022-10-15T08:02:09.934Z,986.39
2022-10-15T08:03:09.923Z,986.38
2022-10-15T08:04:09.913Z,986.43
2022-10-15T08:05:09.990Z,986.38
2022-10-15T08:06:09.884Z,986.40
2022-10-15T08:07:10.421Z,986.42
2022-10-15T08:08:09.912Z,986.41
2022-10-15T08:09:09.905Z,986.42
2022-10-15T08:10:09.999Z,986.47
2022-10-15T08:11:09.861Z,986.53
2022-10-15T08:12:09.863Z,986.47
2022-10-15T08:13:09.832Z,986.46
2022-10-15T08:14:09.853Z,986.50
2022-10-15T08:15:09.862Z,986.44
2022-10-15T08:16:09.828Z,986.49
2022-10-15T08:17:09.845Z,986.46
2022-10-15T08:18:09.881Z,986.47
2022-10-15T08:19:09.901Z,986.47
2022-10-15T08:20:09.792Z,986.43
2022-10-15T08:21:09.867Z,986.46
2022-10-15T08:22:09.774Z,986.44
2022-10-15T08:23:09.782Z,986.41
2022-10-15T08:24:09.835Z,986.46
2022-10-15T08:25:09.748Z,986.39
2022-10-15T08:26:09.725Z,986.35
2022-10-15T08:27:09.721Z,986.34
2022-10-15T08:29:09.740Z,986.44
2022-10-15T08:30:09.725Z,986.45
2022-10-15T08:31:09.782Z,986.40
2022-10-15T08:32:09.712Z,986.45
2022-10-15T08:33:09.745Z,986.44
2022-10-15T08:34:09.678Z,986.47
2022-10-15T08:35:09.773Z,986.43
2022-10-15T08:36:09.704Z,986.44
2022-10-15T08:37:09.748Z,986.46
2022-10-15T08:38:09.899Z,986.39
2022-10-15T08:39:09.627Z,986.39
2022-10-15T08:40:09.618Z,986.39
2022-10-15T08:41:10.620Z,986.43
2022-10-15T08:42:09.629Z,986.43
2022-10-15T08:43:09.859Z,986.48
2022-10-15T08:44:11.676Z,986.44
2022-10-15T08:45:12.224Z,986.47
2022-10-15T08:46:11.172Z,986.43
2022-10-15T08:47:09.614Z,986.57
2022-10-15T08:48:09.589Z,986.51
2022-10-15T08:49:09.563Z,986.49
2022-10-15T08:50:09.540Z,986.48
2022-10-15T08:51:09.557Z,986.48
2022-10-15T08:52:09.575Z,986.53
2022-10-15T08:53:09.525Z,986.48
2022-10-15T08:54:09.519Z,986.55
2022-10-15T08:55:09.503Z,986.45
2022-10-15T08:56:09.625Z,986.47
2022-10-15T08:57:09.567Z,986.54
2022-10-15T08:58:09.529Z,986.45
2022-10-15T08:59:09.493Z,986.48
2022-10-15T09:00:09.512Z,986.48
2022-10-15T09:01:09.584Z,986.52
2022-10-15T09:02:09.482Z,986.51
2022-10-15T09:03:09.558Z,986.50
2022-10-15T09:04:09.460Z,986.49
2022-10-15T09:05:09.435Z,986.49
2022-10-15T09:06:09.451Z,986.51
2022-10-15T09:07:09.434Z,986.51
2022-10-15T09:08:09.585Z,986.55
2022-10-15T09:09:09.538Z,986.49
2022-10-15T09:10:09.453Z,986.55
2022-10-15T09:11:09.487Z,986.56
2022-10-15T09:12:09.425Z,986.59
2022-10-15T09:13:12.534Z,986.61
2022-10-15T09:14:11.416Z,986.57
2022-10-15T09:15:09.420Z,986.56
2022-10-15T09:16:09.499Z,986.60
2022-10-15T09:17:09.358Z,986.57
2022-10-15T09:18:09.381Z,986.61
2022-10-15T09:19:09.388Z,986.64
2022-10-15T09:20:10.373Z,986.57
2022-10-15T09:21:09.368Z,986.64
2022-10-15T09:22:09.366Z,986.63
2022-10-15T09:23:09.354Z,986.63
2022-10-15T09:24:09.333Z,986.55
2022-10-15T09:25:09.362Z,986.59
2022-10-15T09:26:09.367Z,986.59
2022-10-15T09:27:09.306Z,986.61
2022-10-15T09:28:09.300Z,986.58
2022-10-15T09:29:09.380Z,986.51
2022-10-15T09:30:09.308Z,986.49
2022-10-15T09:31:09.262Z,986.52
2022-10-15T09:32:09.265Z,986.47
2022-10-15T09:33:09.259Z,986.54
2022-10-15T09:34:09.264Z,986.59
2022-10-15T09:35:09.269Z,986.55
2022-10-15T09:36:09.289Z,986.57
2022-10-15T09:37:09.252Z,986.58
2022-10-15T09:38:09.251Z,986.51
2022-10-15T09:39:09.281Z,986.53
2022-10-15T09:40:09.205Z,986.52
2022-10-15T09:42:09.222Z,986.51
2022-10-15T09:43:09.173Z,986.52
2022-10-15T09:44:09.229Z,986.52
2022-10-15T09:45:09.198Z,986.45
2022-10-15T09:46:09.181Z,986.46
2022-10-15T09:47:09.207Z,986.45
2022-10-15T09:48:09.163Z,986.51
2022-10-15T09:49:09.237Z,986.44
2022-10-15T09:50:09.181Z,986.45
2022-10-15T09:51:09.147Z,986.43
2022-10-15T09:52:09.138Z,986.44
2022-10-15T09:53:09.106Z,986.44
2022-10-15T09:54:09.102Z,986.39
2022-10-15T09:55:09.103Z,986.42
2022-10-15T09:56:09.090Z,986.36
2022-10-15T09:57:09.209Z,986.34
2022-10-15T09:58:09.088Z,986.35
2022-10-15T09:59:09.815Z,986.41
2022-10-15T10:00:09.094Z,986.40
2022-10-15T10:01:09.091Z,986.38
2022-10-15T10:02:09.177Z,986.37
2022-10-15T10:03:09.080Z,986.34
2022-10-15T10:04:09.080Z,986.31
2022-10-15T10:05:09.040Z,986.30
2022-10-15T10:06:09.035Z,986.29
2022-10-15T10:07:09.146Z,986.37
2022-10-15T10:08:09.049Z,986.35
2022-10-15T10:09:09.042Z,986.36
2022-10-15T10:10:09.006Z,986.44
2022-10-15T10:11:08.993Z,986.36
2022-10-15T10:12:09.010Z,986.33
2022-10-15T10:13:09.080Z,986.30
2022-10-15T10:14:09.001Z,986.31
2022-10-15T10:15:08.986Z,986.32
2022-10-15T10:16:09.004Z,986.40
2022-10-15T10:17:08.972Z,986.37
2022-10-15T10:18:09.006Z,986.44
2022-10-15T10:19:09.238Z,986.47
2022-10-15T10:20:08.965Z,986.45
2022-10-15T10:21:08.955Z,986.42
2022-10-15T10:22:08.935Z,986.52
2022-10-15T10:23:09.003Z,986.51
2022-10-15T10:24:08.921Z,986.49
2022-10-15T10:25:08.915Z,986.50
2022-10-15T10:26:08.948Z,986.48
2022-10-15T10:27:08.910Z,986.51
2022-10-15T10:28:08.921Z,986.47
2022-10-15T10:29:15.771Z,986.48
2022-10-15T10:30:10.938Z,986.53
2022-10-15T10:31:09.000Z,986.55
2022-10-15T10:32:08.881Z,986.57
2022-10-15T10:33:08.867Z,986.60
2022-10-15T10:34:08.896Z,986.52
2022-10-15T10:35:08.875Z,986.45
2022-10-15T10:37:08.841Z,986.41
2022-10-15T10:38:08.859Z,986.43
2022-10-15T10:39:08.855Z,986.46
2022-10-15T10:40:08.885Z,986.43
2022-10-15T10:41:08.861Z,986.47
2022-10-15T10:42:08.811Z,986.44
2022-10-15T10:43:08.830Z,986.44
2022-10-15T10:44:08.837Z,986.48
2022-10-15T10:45:08.841Z,986.44
2022-10-15T10:46:08.801Z,986.49
2022-10-15T10:47:08.782Z,986.45
2022-10-15T10:48:08.777Z,986.43
2022-10-15T10:49:08.805Z,986.42
2022-10-15T10:50:08.762Z,986.39
2022-10-15T10:51:09.529Z,986.47
2022-10-15T10:52:08.787Z,986.44
2022-10-15T10:53:08.762Z,986.46
2022-10-15T10:54:08.724Z,986.42
2022-10-15T10:55:08.744Z,986.50
2022-10-15T10:56:08.711Z,986.49
2022-10-15T10:57:09.739Z,986.46
2022-10-15T10:58:08.708Z,986.46
2022-10-15T10:59:08.758Z,986.54
2022-10-15T11:00:08.693Z,986.49
2022-10-15T11:01:08.808Z,986.45
2022-10-15T11:02:08.706Z,986.46
2022-10-15T11:03:08.710Z,986.47
2022-10-15T11:04:08.703Z,986.52
2022-10-15T11:05:08.689Z,986.45
2022-10-15T11:06:08.676Z,986.45
2022-10-15T11:07:08.658Z,986.47
2022-10-15T11:08:08.645Z,986.41
2022-10-15T11:09:08.658Z,986.42
2022-10-15T11:10:08.663Z,986.51
2022-10-15T11:11:08.608Z,986.45
2022-10-15T11:12:08.612Z,986.39
2022-10-15T11:13:08.648Z,986.43
2022-10-15T11:14:08.668Z,986.41
2022-10-15T11:15:08.595Z,986.43
2022-10-15T11:16:08.584Z,986.41
2022-10-15T11:17:08.597Z,986.34
2022-10-15T11:18:08.593Z,986.39
2022-10-15T11:19:18.618Z,986.39
2022-10-15T11:20:29.578Z,986.34
2022-10-15T11:21:10.588Z,986.38
2022-10-15T11:22:08.576Z,986.33
2022-10-15T11:23:08.538Z,986.32
2022-10-15T11:24:08.522Z,986.34
2022-10-15T11:25:08.581Z,986.37
2022-10-15T11:26:08.559Z,986.29
2022-10-15T11:27:11.895Z,986.33
2022-10-15T11:28:09.506Z,986.33
2022-10-15T11:29:08.557Z,986.33
2022-10-15T11:30:08.490Z,986.36
2022-10-15T11:31:08.532Z,986.41
2022-10-15T11:32:14.937Z,986.35
2022-10-15T11:33:10.933Z,986.31
2022-10-15T11:34:08.467Z,986.29
2022-10-15T11:35:08.490Z,986.30
2022-10-15T11:36:08.474Z,986.29
2022-10-15T11:37:08.461Z,986.29
2022-10-15T11:38:08.468Z,986.29
2022-10-15T11:39:08.445Z,986.27
2022-10-15T11:40:08.455Z,986.31
2022-10-15T11:41:08.531Z,986.32
2022-10-15T11:42:08.438Z,986.34
2022-10-15T11:43:08.453Z,986.36
2022-10-15T11:44:08.467Z,986.37
2022-10-15T11:45:08.401Z,986.36
2022-10-15T11:46:08.391Z,986.29
2022-10-15T11:47:08.423Z,986.32
2022-10-15T11:48:08.398Z,986.29
2022-10-15T11:49:08.366Z,986.30
2022-10-15T11:50:08.399Z,986.24
2022-10-15T11:51:08.358Z,986.26
2022-10-15T11:52:08.394Z,986.23
2022-10-15T11:53:08.356Z,986.25
2022-10-15T11:54:08.958Z,986.30
2022-10-15T11:55:08.339Z,986.28
2022-10-15T11:56:08.330Z,986.25
2022-10-15T11:57:08.417Z,986.19
2022-10-15T11:58:08.312Z,986.24
2022-10-15T11:59:08.330Z,986.22
2022-10-15T12:00:08.323Z,986.22
2022-10-15T12:01:08.284Z,986.20
2022-10-15T12:02:08.298Z,986.18
2022-10-15T12:03:08.332Z,986.10
2022-10-15T12:04:08.390Z,986.15
2022-10-15T12:05:08.288Z,986.17
2022-10-15T12:06:08.288Z,986.14
2022-10-15T12:07:08.286Z,986.12
2022-10-15T12:08:08.308Z,986.10
2022-10-15T12:09:09.256Z,986.10
2022-10-15T12:10:08.243Z,986.07
2022-10-15T12:11:08.245Z,986.07
2022-10-15T12:12:08.204Z,986.03
2022-10-15T12:13:09.307Z,986.03
2022-10-15T12:14:08.248Z,986.00
2022-10-15T12:15:08.216Z,985.98
2022-10-15T12:16:08.216Z,986.01
2022-10-15T12:18:08.256Z,986.04
2022-10-15T12:19:08.387Z,986.01
2022-10-15T12:20:08.194Z,986.04
2022-10-15T12:21:08.202Z,986.00
2022-10-15T12:22:08.160Z,986.02
2022-10-15T12:23:08.177Z,985.94
2022-10-15T12:24:09.210Z,985.96
2022-10-15T12:25:08.145Z,985.95
2022-10-15T12:26:08.181Z,985.88
2022-10-15T12:27:08.119Z,985.89
2022-10-15T12:28:08.162Z,985.99
2022-10-15T12:29:08.182Z,986.00
2022-10-15T12:30:08.137Z,985.92
2022-10-15T12:31:08.121Z,985.96
2022-10-15T12:32:08.096Z,985.90
2022-10-15T12:33:08.079Z,985.91
2022-10-15T12:34:08.065Z,985.85
2022-10-15T12:35:08.133Z,985.83
2022-10-15T12:36:08.132Z,985.86
2022-10-15T12:37:08.122Z,985.89